• pl
  • eng

Awiacja
Kliknij na pogrubioną czerwoną nazwę, aby odkodować depeszę. 00:01 17.12.2018
  • WIND
  • SIGNIFICANT EURO
  • SIGNIFICANT
  • SIGMET
  • AIRMET
  • TAF FC
  • TAF FT
  • METAR GG30
  • METAR GG00


METAR EPBY 162300Z 15004KT 7000 OVC021 M02/M03 Q1018 R26/590194 =

METAR EPGD 162300Z 16005KT 140V200 7000 FEW006 OVC026 M02/M03 Q1017
R11/290095 =

METAR EPKK 162300Z 09003KT 1600 BR NSC M09/M10 Q1018 R25/51//95 =

METAR EPKT 162300Z 14006KT 3900 BR NSC M06/M07 Q1018 =

METAR EPLB 162300Z 13006KT 9999 OVC013 M01/M02 Q1020 =

METAR EPLL 162300Z 12005KT 090V160 8000 OVC022 M02/M05 Q1018
R25/29//95 =

METAR EPMO 162300Z 17004KT 130V200 9999 OVC026 M01/M04 Q1020
R08/290195 =

METAR EPPO 162300Z 13008KT 9000 SCT028 M02/M05 Q1017 R10/29//95 =

METAR EPRA 162300Z NIL=

METAR EPRZ 162300Z 09007KT 3500 BR NSC M03/M04 Q1019 R27/1///95 =

METAR EPSC 162300Z 12007KT 9999 OVC031 M01/M05 Q1016 =

METAR EPSY 162300Z NIL=

METAR EPWA 162300Z 16004KT 9999 BKN024 M02/M04 Q1020 R88/2///95
NOSIG=

METAR EPWR 162300Z 13005KT CAVOK M02/M05 Q1017 =

METAR EPZG 162300Z 11003KT 080V140 8000 OVC024 M02/M04 Q1017 =
Awiacja.imgw.pl jest pogodowym serwisem informacyjnym
Instytutu Meteorologii i Gospodarki Wodnej Państwowego Instytutu Badawczego.
Copyright IMGW PIB 2009-2011© Wszelkie prawa zastrzeżone.